Sainte-Dorothee, Canada
Current Conditions -  °F | °C
As of 3:00 AM on Friday 24 Oct 2014 (Local Time) from CYUL Reporting Station
Overcast Overcast  
Wind Chill: 41°   Ceiling: 3700
Heat Index: 46°   Visibility: 15mi
Dew Point: 41°   Wind: 13mph
Humidity: 81%   Direction: 20°NNE
Pressure: 29.91"   Gusts: NA
Location:  45.53°N, 73.82°W
Report Text: CYUL 240700Z 02011KT 15SM OVC037 08/05 A2991 RMK SC8 SLP128
Loading
Personal Weather Stations






























Interactive Weather Map
Tropical Storm Tracking
New forecast layout! Learn more

10-Day Weather Forecast

Advertisements
Track Severe Weather on mobile